Time;durP1;ratioP1;P1;durP2;ratioP2;P2;SDS_P1;SDS_P2;PMS_P1;PMS_P2;Temp;Humidity;BMP_temperature;BMP_pressure;BME280_temperature;BME280_humidity;BME280_pressure;Samples;Min_cycle;Max_cycle;Signal;HPM_P1;HPM_P2
2023/05/22 00:00:18;;;;;;;29.33;26.45;;;17.50;99.90;;;;;;5030404;28;20102;-70
2023/05/22 00:02:44;;;;;;;28.83;25.83;;;17.50;99.90;;;;;;5048161;28;20126;-70
2023/05/22 00:05:13;;;;;;;29.85;26.65;;;17.40;99.90;;;;;;5062637;28;20257;-70
2023/05/22 00:07:41;;;;;;;33.03;27.92;;;17.50;99.90;;;;;;5047170;28;20045;-70
2023/05/22 00:10:08;;;;;;;31.35;28.13;;;17.50;99.90;;;;;;5030540;28;20558;-70
2023/05/22 00:12:33;;;;;;;32.53;29.15;;;17.40;99.90;;;;;;5029904;28;20068;-70
2023/05/22 00:14:59;;;;;;;32.47;29.00;;;17.40;99.90;;;;;;5029766;28;20130;-69
2023/05/22 00:17:25;;;;;;;31.02;27.90;;;17.40;99.90;;;;;;5030140;28;20084;-70
2023/05/22 00:19:52;;;;;;;34.08;30.55;;;17.40;99.90;;;;;;5033827;28;20091;-70
2023/05/22 00:22:19;;;;;;;34.20;30.83;;;17.40;99.90;;;;;;5034460;28;20045;-70
2023/05/22 00:24:45;;;;;;;34.25;30.95;;;17.40;99.90;;;;;;5067641;28;20488;-69
2023/05/22 00:27:10;;;;;;;34.42;30.92;;;17.30;99.90;;;;;;5031348;28;20099;-70
2023/05/22 00:29:36;;;;;;;35.25;31.65;;;17.30;99.90;;;;;;5067139;28;20040;-70
2023/05/22 00:32:02;;;;;;;35.63;32.00;;;17.20;99.90;;;;;;5033896;28;20155;-70
2023/05/22 00:34:28;;;;;;;34.72;31.27;;;17.20;99.90;;;;;;5032938;28;20097;-70
2023/05/22 00:36:54;;;;;;;35.42;31.88;;;17.20;99.90;;;;;;5033981;28;20033;-71
2023/05/22 00:39:20;;;;;;;36.30;32.65;;;17.20;99.90;;;;;;5049828;28;20041;-71
2023/05/22 00:41:46;;;;;;;35.25;31.63;;;17.10;99.90;;;;;;5050636;28;20044;-71
2023/05/22 00:44:12;;;;;;;36.83;32.80;;;17.10;99.90;;;;;;5065282;28;20042;-71
2023/05/22 00:46:37;;;;;;;36.00;32.15;;;17.10;99.90;;;;;;5030908;28;20045;-70
2023/05/22 00:49:03;;;;;;;36.35;32.65;;;17.20;99.90;;;;;;5032460;28;20088;-70
2023/05/22 00:51:29;;;;;;;37.70;33.72;;;17.10;99.90;;;;;;5031914;28;20437;-70
2023/05/22 00:53:55;;;;;;;38.15;34.25;;;17.10;99.90;;;;;;5051828;28;20116;-70
2023/05/22 00:56:21;;;;;;;37.30;33.40;;;17.10;99.90;;;;;;5034067;28;20036;-70
2023/05/22 00:58:47;;;;;;;36.92;32.97;;;17.10;99.90;;;;;;5033743;28;20575;-70
2023/05/22 01:01:14;;;;;;;37.65;33.22;;;17.10;99.90;;;;;;5032096;28;20405;-70
2023/05/22 01:03:44;;;;;;;39.88;35.63;;;17.10;99.90;;;;;;5033049;28;20041;-69
2023/05/22 01:06:17;;;;;;;36.85;32.95;;;17.10;99.90;;;;;;5049024;28;20083;-70
2023/05/22 01:08:43;;;;;;;39.25;34.92;;;17.10;99.90;;;;;;5066442;28;20116;-71
2023/05/22 01:11:26;;;;;;;37.30;33.38;;;17.00;99.90;;;;;;5033815;28;20417;-69
2023/05/22 01:14:18;;;;;;;38.67;34.83;;;17.00;99.90;;;;;;5030705;28;20466;-70
2023/05/22 01:17:12;;;;;;;37.78;33.88;;;17.00;99.90;;;;;;5010864;28;20060;-70
2023/05/22 01:20:06;;;;;;;40.55;36.35;;;17.00;99.90;;;;;;5030846;28;20578;-70
2023/05/22 01:23:17;;;;;;;35.57;31.90;;;17.00;99.90;;;;;;5017181;28;20049;-69
2023/05/22 01:26:21;;;;;;;41.95;36.17;;;17.00;99.90;;;;;;5032673;28;20048;-70
2023/05/22 01:28:49;;;;;;;40.72;34.53;;;17.00;99.90;;;;;;5034040;28;20067;-67
2023/05/22 01:31:17;;;;;;;40.40;36.22;;;17.00;99.90;;;;;;5030138;28;20037;-68
2023/05/22 01:33:56;;;;;;;40.35;35.90;;;17.00;99.90;;;;;;5049472;28;20072;-68
2023/05/22 01:36:27;;;;;;;39.03;35.00;;;16.90;99.90;;;;;;5067209;28;20124;-69
2023/05/22 01:38:54;;;;;;;41.70;37.10;;;17.00;99.90;;;;;;5023498;28;20575;-68
2023/05/22 01:41:21;;;;;;;40.38;35.88;;;16.90;99.90;;;;;;5066409;28;20044;-68
2023/05/22 01:43:47;;;;;;;40.08;35.97;;;17.00;99.90;;;;;;5063799;28;20041;-68
2023/05/22 01:46:12;;;;;;;40.88;35.60;;;16.90;99.90;;;;;;5030494;28;20525;-68
2023/05/22 01:48:38;;;;;;;40.20;36.05;;;16.90;99.90;;;;;;5046388;28;20056;-68
2023/05/22 01:51:17;;;;;;;38.28;34.30;;;16.90;99.90;;;;;;5048085;28;20393;-68
2023/05/22 01:54:04;;;;;;;41.55;36.88;;;16.90;99.90;;;;;;5031778;28;20037;-68
2023/05/22 01:56:42;;;;;;;42.80;38.05;;;17.00;99.90;;;;;;5049079;28;20039;-68
2023/05/22 01:59:18;;;;;;;38.22;34.13;;;16.90;99.90;;;;;;5063733;28;20308;-69
2023/05/22 02:01:45;;;;;;;43.78;39.03;;;16.90;99.90;;;;;;5031527;28;20041;-69
2023/05/22 02:04:13;;;;;;;40.85;36.20;;;16.90;99.90;;;;;;5048021;28;20049;-68
2023/05/22 02:06:40;;;;;;;42.42;36.40;;;16.90;99.90;;;;;;5032917;28;20049;-68
2023/05/22 02:09:07;;;;;;;43.92;37.13;;;16.90;99.90;;;;;;5032653;28;20044;-70
2023/05/22 02:11:35;;;;;;;39.75;35.75;;;16.90;99.90;;;;;;5052210;28;20086;-69
2023/05/22 02:14:01;;;;;;;38.97;34.95;;;16.90;99.90;;;;;;5030222;28;20497;-69
2023/05/22 02:16:29;;;;;;;41.67;37.22;;;16.90;99.90;;;;;;5065740;28;20047;-69
2023/05/22 02:19:04;;;;;;;38.10;34.00;;;16.90;99.90;;;;;;5062931;28;20504;-69
2023/05/22 02:21:35;;;;;;;43.67;39.08;;;16.90;99.90;;;;;;5029531;28;20079;-69
2023/05/22 02:24:02;;;;;;;43.25;37.67;;;16.90;99.90;;;;;;5062007;28;20036;-69
2023/05/22 02:26:28;;;;;;;43.05;38.42;;;16.90;99.90;;;;;;5032700;28;20037;-68
2023/05/22 02:28:54;;;;;;;39.80;35.60;;;16.90;99.90;;;;;;5062422;28;20116;-69
2023/05/22 02:31:19;;;;;;;40.35;36.30;;;16.90;99.90;;;;;;5025344;28;20124;-69
2023/05/22 02:33:45;;;;;;;42.67;38.05;;;16.90;99.90;;;;;;5060509;28;20086;-69
2023/05/22 02:36:13;;;;;;;41.40;37.03;;;16.90;99.90;;;;;;5032504;28;20049;-68
2023/05/22 02:38:39;;;;;;;40.13;35.92;;;16.90;99.90;;;;;;5065490;28;20441;-69
2023/05/22 02:41:06;;;;;;;41.90;35.92;;;16.90;99.90;;;;;;5047396;28;20124;-69
2023/05/22 02:43:31;;;;;;;41.83;37.42;;;16.90;99.90;;;;;;5048723;28;20424;-69
2023/05/22 02:45:57;;;;;;;39.22;35.28;;;16.90;99.90;;;;;;5047702;28;20098;-69
2023/05/22 02:48:24;;;;;;;42.55;38.03;;;16.90;99.90;;;;;;5031020;28;20053;-68
2023/05/22 02:50:50;;;;;;;42.47;37.88;;;16.90;99.90;;;;;;5062483;28;20053;-68
2023/05/22 02:53:16;;;;;;;39.78;35.78;;;16.80;99.90;;;;;;5031796;28;20041;-69
2023/05/22 02:55:42;;;;;;;40.63;36.22;;;16.80;99.90;;;;;;5049434;28;20045;-69
2023/05/22 02:58:10;;;;;;;42.90;38.05;;;16.80;99.90;;;;;;5032367;28;20272;-68
2023/05/22 03:00:42;;;;;;;40.08;35.88;;;16.80;99.90;;;;;;5047299;28;20045;-69
2023/05/22 03:03:07;;;;;;;39.65;35.53;;;16.80;99.90;;;;;;5045991;28;20095;-68
2023/05/22 03:05:33;;;;;;;40.72;36.35;;;16.80;99.90;;;;;;5049142;28;20493;-68
2023/05/22 03:07:59;;;;;;;39.25;34.70;;;16.80;99.90;;;;;;5051082;28;20029;-68
2023/05/22 03:10:24;;;;;;;41.53;37.13;;;16.70;99.90;;;;;;5050481;28;20041;-68
2023/05/22 03:12:50;;;;;;;41.10;36.88;;;16.80;99.90;;;;;;5030768;28;20033;-68
2023/05/22 03:15:17;;;;;;;42.83;38.53;;;16.80;99.90;;;;;;5031990;28;20060;-69
2023/05/22 03:17:43;;;;;;;42.95;38.28;;;16.70;99.90;;;;;;5029891;28;20067;-69
2023/05/22 03:20:09;;;;;;;42.70;38.05;;;16.70;99.90;;;;;;5030654;28;20060;-69
2023/05/22 03:22:35;;;;;;;44.20;37.33;;;16.70;99.90;;;;;;5027855;28;20038;-69
2023/05/22 03:25:01;;;;;;;40.05;35.88;;;16.70;99.90;;;;;;5049022;28;20489;-69
2023/05/22 03:27:27;;;;;;;39.97;35.78;;;16.70;99.90;;;;;;5029066;28;20060;-69
2023/05/22 03:29:52;;;;;;;38.38;34.45;;;16.70;99.90;;;;;;5033568;28;20078;-69
2023/05/22 03:32:18;;;;;;;39.95;35.70;;;16.70;99.90;;;;;;5027205;28;20041;-69
2023/05/22 03:34:44;;;;;;;39.00;34.80;;;16.70;99.90;;;;;;5059126;28;20037;-69
2023/05/22 03:37:10;;;;;;;39.15;35.03;;;16.70;99.90;;;;;;5063676;28;20179;-68
2023/05/22 03:39:38;;;;;;;39.92;35.67;;;16.70;99.90;;;;;;5031124;28;20051;-69
2023/05/22 03:42:04;;;;;;;40.08;35.97;;;16.80;99.90;;;;;;5060610;28;20041;-68
2023/05/22 03:44:30;;;;;;;40.38;36.13;;;16.80;99.90;;;;;;5047636;28;20055;-68
2023/05/22 03:46:55;;;;;;;39.22;35.10;;;16.80;99.90;;;;;;5030424;28;20057;-68
2023/05/22 03:49:21;;;;;;;38.50;34.47;;;16.80;99.90;;;;;;5046614;28;20485;-68
2023/05/22 03:51:47;;;;;;;42.08;37.50;;;16.80;99.90;;;;;;5047925;28;20117;-68
2023/05/22 03:54:13;;;;;;;37.85;33.83;;;16.80;99.90;;;;;;5029872;28;20044;-69
2023/05/22 03:56:38;;;;;;;39.78;35.83;;;16.80;99.90;;;;;;5045103;28;20565;-69
2023/05/22 03:59:04;;;;;;;38.85;34.90;;;16.80;99.90;;;;;;5030022;28;20048;-69
2023/05/22 04:01:30;;;;;;;38.20;34.17;;;16.80;99.90;;;;;;5028562;28;20403;-69
2023/05/22 04:03:56;;;;;;;40.45;36.28;;;16.80;99.90;;;;;;5030912;28;20402;-69
2023/05/22 04:06:22;;;;;;;41.85;37.40;;;16.80;99.90;;;;;;5049064;28;20110;-69
2023/05/22 04:08:48;;;;;;;41.85;37.47;;;16.80;99.90;;;;;;5031609;28;20041;-68
2023/05/22 04:11:17;;;;;;;41.78;37.50;;;16.80;99.90;;;;;;5029380;28;20052;-69
2023/05/22 04:13:43;;;;;;;41.58;37.45;;;16.80;99.90;;;;;;5061187;28;20116;-70
2023/05/22 04:16:09;;;;;;;39.42;35.15;;;16.80;99.90;;;;;;5048877;28;20033;-69
2023/05/22 04:18:35;;;;;;;38.13;34.53;;;16.80;99.90;;;;;;5029010;28;20041;-69
2023/05/22 04:21:01;;;;;;;38.88;34.70;;;16.80;99.90;;;;;;5029953;28;20036;-69
2023/05/22 04:23:27;;;;;;;37.92;34.03;;;16.70;99.90;;;;;;5030837;28;20094;-69
2023/05/22 04:25:54;;;;;;;38.28;34.17;;;16.80;99.90;;;;;;5060941;28;20459;-70
2023/05/22 04:28:22;;;;;;;37.63;33.78;;;16.80;99.90;;;;;;5033485;28;20041;-70
2023/05/22 04:30:48;;;;;;;38.00;34.40;;;16.80;99.90;;;;;;5062173;28;20044;-70
2023/05/22 04:33:15;;;;;;;38.35;34.33;;;16.90;99.90;;;;;;5027117;28;20060;-69
2023/05/22 04:35:41;;;;;;;36.95;33.13;;;16.80;99.90;;;;;;5030625;28;20057;-69
2023/05/22 04:38:07;;;;;;;47.90;38.90;;;16.90;99.90;;;;;;5060157;28;20092;-69
2023/05/22 04:40:33;;;;;;;40.83;36.60;;;16.80;99.90;;;;;;5047522;28;20033;-69
2023/05/22 04:42:59;;;;;;;39.13;35.28;;;16.80;99.90;;;;;;5030320;28;20036;-68
2023/05/22 04:45:29;;;;;;;39.47;35.45;;;16.90;99.90;;;;;;5029510;28;20408;-68
2023/05/22 04:47:55;;;;;;;36.58;33.03;;;16.90;99.90;;;;;;5047214;28;20044;-69
2023/05/22 04:50:22;;;;;;;38.63;34.72;;;16.90;99.90;;;;;;5023240;28;20443;-69
2023/05/22 04:52:48;;;;;;;37.78;33.60;;;16.80;99.90;;;;;;5008987;28;20049;-69
2023/05/22 04:55:14;;;;;;;35.92;32.53;;;16.80;99.90;;;;;;5024325;28;20049;-69
2023/05/22 04:57:43;;;;;;;35.35;31.95;;;16.80;99.90;;;;;;5025103;28;20041;-69
2023/05/22 05:00:12;;;;;;;33.38;30.08;;;16.80;99.90;;;;;;5006665;28;20036;-69
2023/05/22 05:02:38;;;;;;;35.13;31.48;;;16.80;99.90;;;;;;5025346;28;20045;-69
2023/05/22 05:05:04;;;;;;;33.70;30.25;;;16.80;99.90;;;;;;5026454;28;20092;-69
2023/05/22 05:07:30;;;;;;;34.88;31.35;;;16.80;99.90;;;;;;5029671;28;20119;-69
2023/05/22 05:09:55;;;;;;;33.40;30.05;;;16.80;99.90;;;;;;5029024;28;20500;-69
2023/05/22 05:12:21;;;;;;;34.67;31.45;;;16.80;99.90;;;;;;5028980;28;20111;-69
2023/05/22 05:14:47;;;;;;;33.47;30.27;;;16.80;99.90;;;;;;5029342;28;20040;-69
2023/05/22 05:17:13;;;;;;;32.33;29.33;;;16.80;99.90;;;;;;5028424;28;20191;-69
2023/05/22 05:19:39;;;;;;;34.28;30.75;;;16.80;99.90;;;;;;5030207;28;20045;-69
2023/05/22 05:22:04;;;;;;;33.58;30.30;;;16.70;99.90;;;;;;5030686;28;20045;-69
2023/05/22 05:24:30;;;;;;;31.40;28.30;;;16.80;99.90;;;;;;5030950;28;20099;-70
2023/05/22 05:26:56;;;;;;;32.40;29.25;;;16.90;99.90;;;;;;5026711;28;20038;-70
2023/05/22 05:29:21;;;;;;;32.58;29.27;;;16.80;99.90;;;;;;5031805;28;20041;-71
2023/05/22 05:31:47;;;;;;;31.73;28.60;;;16.80;99.90;;;;;;5027638;28;20057;-70
2023/05/22 05:34:13;;;;;;;30.58;27.60;;;16.80;99.90;;;;;;5029908;28;20462;-70
2023/05/22 05:36:39;;;;;;;30.83;27.65;;;16.80;99.90;;;;;;5029201;28;20052;-70
2023/05/22 05:39:05;;;;;;;30.50;27.45;;;16.80;99.90;;;;;;5030884;28;20107;-70
2023/05/22 05:41:31;;;;;;;30.52;27.40;;;16.80;99.90;;;;;;5027358;28;20389;-70
2023/05/22 05:43:58;;;;;;;32.10;29.17;;;16.80;99.90;;;;;;5027354;28;20041;-70
2023/05/22 05:46:24;;;;;;;33.25;30.13;;;16.90;99.90;;;;;;5013742;28;20090;-71
2023/05/22 05:48:51;;;;;;;31.83;28.73;;;16.90;99.90;;;;;;5029627;28;20540;-70
2023/05/22 05:51:17;;;;;;;32.08;28.92;;;16.90;99.90;;;;;;5020626;28;20054;-71
2023/05/22 05:53:43;;;;;;;32.20;29.10;;;16.90;99.90;;;;;;5029520;28;20052;-70
2023/05/22 05:56:09;;;;;;;33.28;29.98;;;16.90;99.90;;;;;;5062113;28;20045;-70
2023/05/22 05:58:35;;;;;;;32.17;29.08;;;16.90;99.90;;;;;;5026443;28;20041;-70
2023/05/22 06:01:01;;;;;;;32.90;29.75;;;16.90;99.90;;;;;;5026700;28;20150;-71
2023/05/22 06:03:27;;;;;;;32.50;29.33;;;16.90;99.90;;;;;;5026482;28;20045;-71
2023/05/22 06:05:53;;;;;;;30.77;27.58;;;16.90;99.90;;;;;;5058920;28;20563;-70
2023/05/22 06:08:20;;;;;;;33.47;30.08;;;17.00;99.90;;;;;;5012869;28;20065;-70
2023/05/22 06:10:46;;;;;;;32.58;29.35;;;17.10;99.90;;;;;;5025677;28;20037;-71
2023/05/22 06:13:12;;;;;;;31.67;28.77;;;17.10;99.90;;;;;;5025745;28;20450;-71
2023/05/22 06:15:38;;;;;;;33.15;30.05;;;17.10;99.90;;;;;;5007024;28;20041;-71
2023/05/22 06:18:04;;;;;;;31.80;28.80;;;17.10;99.90;;;;;;5026794;28;20068;-71
2023/05/22 06:20:30;;;;;;;32.78;29.67;;;17.20;99.90;;;;;;5028532;28;20076;-71
2023/05/22 06:22:56;;;;;;;33.33;29.85;;;17.20;99.90;;;;;;5026145;28;20504;-71
2023/05/22 06:25:24;;;;;;;32.92;29.83;;;17.20;99.90;;;;;;5024759;28;20564;-71
2023/05/22 06:27:50;;;;;;;32.65;29.55;;;17.30;99.90;;;;;;5028004;28;20041;-71
2023/05/22 06:30:16;;;;;;;33.55;30.27;;;17.30;99.90;;;;;;5025955;28;20068;-70
2023/05/22 06:32:42;;;;;;;31.95;29.02;;;17.30;99.90;;;;;;5026380;28;20076;-71
2023/05/22 06:35:09;;;;;;;31.80;28.70;;;17.30;99.90;;;;;;5027461;28;20045;-71
2023/05/22 06:37:36;;;;;;;31.23;28.33;;;17.30;99.90;;;;;;5026358;28;20040;-71
2023/05/22 06:40:02;;;;;;;30.50;27.30;;;17.40;99.90;;;;;;5022369;28;20049;-70
2023/05/22 06:42:28;;;;;;;31.92;28.83;;;17.50;99.90;;;;;;5010476;28;20127;-71
2023/05/22 06:44:54;;;;;;;27.55;24.85;;;17.50;99.90;;;;;;5028866;28;20509;-71
2023/05/22 06:47:19;;;;;;;26.83;24.17;;;17.50;99.90;;;;;;5027843;28;20069;-71
2023/05/22 06:49:45;;;;;;;27.80;25.05;;;17.50;99.90;;;;;;5030995;28;20064;-70
2023/05/22 06:52:11;;;;;;;26.13;23.20;;;17.50;99.90;;;;;;5013520;28;20029;-70
2023/05/22 06:54:41;;;;;;;24.40;21.90;;;17.50;99.90;;;;;;5030800;28;20052;-70
2023/05/22 06:57:07;;;;;;;23.67;21.50;;;17.60;99.90;;;;;;5027229;28;20119;-71
2023/05/22 06:59:33;;;;;;;24.45;21.90;;;17.60;99.90;;;;;;5031523;28;20037;-70
2023/05/22 07:01:59;;;;;;;23.77;21.27;;;17.60;99.90;;;;;;5029624;28;20033;-71
2023/05/22 07:04:24;;;;;;;23.75;21.48;;;17.50;99.90;;;;;;5060460;28;20128;-69
2023/05/22 07:06:51;;;;;;;23.02;20.70;;;17.50;99.90;;;;;;5064348;28;22134;-69
2023/05/22 07:09:18;;;;;;;21.65;19.45;;;17.50;99.90;;;;;;5029945;28;20037;-71
2023/05/22 07:11:47;;;;;;;25.20;21.52;;;17.50;99.90;;;;;;5031420;28;20033;-71
2023/05/22 07:14:13;;;;;;;21.63;19.60;;;17.50;99.90;;;;;;5047012;28;20131;-71
2023/05/22 07:16:40;;;;;;;22.83;20.67;;;17.60;99.90;;;;;;5030638;28;20127;-71
2023/05/22 07:19:07;;;;;;;21.67;19.48;;;17.50;99.90;;;;;;5030730;28;20045;-69
2023/05/22 07:21:34;;;;;;;21.48;19.27;;;17.60;99.90;;;;;;5028186;28;20098;-68
2023/05/22 07:24:07;;;;;;;22.25;19.98;;;17.50;99.90;;;;;;5050105;28;20056;-70
2023/05/22 07:26:36;;;;;;;20.77;18.65;;;17.50;99.90;;;;;;5045454;28;20053;-70
2023/05/22 07:29:03;;;;;;;18.20;16.40;;;17.50;99.90;;;;;;5028576;28;20447;-71
2023/05/22 07:31:29;;;;;;;19.73;16.88;;;17.50;99.90;;;;;;5047874;28;20033;-71
2023/05/22 07:33:55;;;;;;;17.48;15.75;;;17.50;99.90;;;;;;5060509;28;20036;-70
2023/05/22 07:36:21;;;;;;;16.30;14.60;;;17.40;99.90;;;;;;5031507;28;20071;-71
2023/05/22 07:38:47;;;;;;;17.42;15.75;;;17.40;99.90;;;;;;5032364;28;20041;-70
2023/05/22 07:41:13;;;;;;;18.73;16.52;;;17.40;99.90;;;;;;5029250;28;20119;-70
2023/05/22 07:43:38;;;;;;;17.30;15.65;;;17.50;99.90;;;;;;5064247;28;20461;-68
2023/05/22 07:46:05;;;;;;;16.00;14.35;;;17.50;99.90;;;;;;5028845;28;20127;-69
2023/05/22 07:48:31;;;;;;;16.88;15.15;;;17.50;99.90;;;;;;5046129;28;20091;-69
2023/05/22 07:50:56;;;;;;;16.88;15.18;;;17.50;99.90;;;;;;5028114;28;20081;-69
2023/05/22 07:53:22;;;;;;;15.20;13.63;;;17.50;99.90;;;;;;5047288;28;20039;-70
2023/05/22 07:55:48;;;;;;;18.83;14.48;;;17.50;99.90;;;;;;5063498;28;20041;-70
2023/05/22 07:58:14;;;;;;;16.65;14.77;;;17.50;99.90;;;;;;5031008;28;20037;-69
2023/05/22 08:00:40;;;;;;;16.25;13.98;;;17.50;99.90;;;;;;5031576;28;20091;-70
2023/05/22 08:03:06;;;;;;;15.77;14.27;;;17.50;99.90;;;;;;5030268;28;20041;-69
2023/05/22 08:05:31;;;;;;;16.00;14.35;;;17.50;99.90;;;;;;5029747;28;20101;-69
2023/05/22 08:07:57;;;;;;;17.58;14.05;;;17.50;99.90;;;;;;5046907;28;20045;-69
2023/05/22 08:10:23;;;;;;;15.20;13.75;;;17.50;99.90;;;;;;5028175;28;20397;-70
2023/05/22 08:12:49;;;;;;;18.33;13.80;;;17.50;99.90;;;;;;5057666;28;20036;-69
2023/05/22 08:15:14;;;;;;;17.45;12.95;;;17.50;99.90;;;;;;5029806;28;20049;-69
2023/05/22 08:17:40;;;;;;;18.20;13.18;;;17.50;99.90;;;;;;5033293;28;20037;-69
2023/05/22 08:20:07;;;;;;;20.77;12.63;;;17.50;99.90;;;;;;5061248;28;20041;-69
2023/05/22 08:22:33;;;;;;;19.45;13.25;;;17.50;99.90;;;;;;5046814;28;20111;-69
2023/05/22 08:24:59;;;;;;;18.63;12.95;;;17.40;99.90;;;;;;5045364;28;20119;-68
2023/05/22 08:27:25;;;;;;;18.48;12.90;;;17.40;99.90;;;;;;5029329;28;20126;-69
2023/05/22 08:29:51;;;;;;;17.65;13.15;;;17.30;99.90;;;;;;5044161;28;20047;-70
2023/05/22 08:32:20;;;;;;;16.25;12.02;;;17.40;99.90;;;;;;5044398;28;20036;-69
2023/05/22 08:34:46;;;;;;;17.55;11.93;;;17.40;99.90;;;;;;5027636;28;20052;-69
2023/05/22 08:37:15;;;;;;;18.65;11.43;;;17.40;99.90;;;;;;5044884;28;20052;-69
2023/05/22 08:39:41;;;;;;;21.67;12.45;;;17.40;99.90;;;;;;5048018;28;20135;-69
2023/05/22 08:42:07;;;;;;;20.40;11.38;;;17.40;99.90;;;;;;5033997;28;20053;-69
2023/05/22 08:44:33;;;;;;;15.23;10.85;;;17.40;99.90;;;;;;5032039;28;20037;-69
2023/05/22 08:47:00;;;;;;;14.63;10.52;;;17.40;99.90;;;;;;5049599;28;20041;-69
2023/05/22 08:49:26;;;;;;;14.80;10.20;;;17.40;99.90;;;;;;5034646;28;20504;-69
2023/05/22 08:52:04;;;;;;;17.67;10.98;;;17.50;99.90;;;;;;5032355;28;20091;-68
2023/05/22 08:54:32;;;;;;;18.35;12.13;;;17.50;99.90;;;;;;5031357;28;20034;-68
2023/05/22 08:56:58;;;;;;;21.65;11.02;;;17.50;99.90;;;;;;5033900;28;20472;-68
2023/05/22 08:59:24;;;;;;;16.48;11.00;;;17.60;99.90;;;;;;5050758;28;20084;-68
2023/05/22 09:01:51;;;;;;;16.05;10.30;;;17.70;99.90;;;;;;5049559;28;20045;-69
2023/05/22 09:04:17;;;;;;;17.58;11.07;;;17.70;99.90;;;;;;5030314;28;20049;-69
2023/05/22 09:06:46;;;;;;;15.18;10.25;;;17.80;99.90;;;;;;5064779;28;20060;-69
2023/05/22 09:09:11;;;;;;;16.05;10.63;;;18.00;99.90;;;;;;5053181;28;20112;-68
2023/05/22 09:11:37;;;;;;;22.42;10.68;;;18.10;99.90;;;;;;5033594;28;20148;-68
2023/05/22 09:14:08;;;;;;;21.02;10.02;;;18.30;99.90;;;;;;5033478;28;20481;-68
2023/05/22 09:16:46;;;;;;;17.23;9.75;;;18.50;99.90;;;;;;5051566;28;20550;-69
2023/05/22 09:19:13;;;;;;;17.02;9.43;;;18.70;99.90;;;;;;5067507;28;20055;-69
2023/05/22 09:21:39;;;;;;;17.88;10.10;;;18.80;99.90;;;;;;5050546;28;20041;-69
2023/05/22 09:24:08;;;;;;;16.77;9.00;;;19.00;99.90;;;;;;5034727;28;20439;-68
2023/05/22 09:26:35;;;;;;;14.65;9.60;;;19.30;99.90;;;;;;5030717;28;20085;-69
2023/05/22 09:29:01;;;;;;;18.83;9.88;;;19.70;99.90;;;;;;5051609;28;20037;-69
2023/05/22 09:31:28;;;;;;;18.63;9.63;;;19.80;99.90;;;;;;5051620;28;20044;-70
2023/05/22 09:33:58;;;;;;;16.35;10.02;;;19.90;99.90;;;;;;5066102;28;20056;-69
2023/05/22 09:36:32;;;;;;;17.60;10.18;;;20.30;99.90;;;;;;5051337;28;20043;-69
2023/05/22 09:39:00;;;;;;;14.93;9.55;;;20.80;99.90;;;;;;5031778;28;20051;-69
2023/05/22 09:41:29;;;;;;;16.17;8.93;;;21.10;99.90;;;;;;5050627;28;20084;-70
2023/05/22 09:43:55;;;;;;;15.57;9.63;;;21.30;99.90;;;;;;5051599;28;20385;-70
2023/05/22 09:46:20;;;;;;;20.92;10.18;;;21.80;99.90;;;;;;5051465;28;20040;-67
2023/05/22 09:48:53;;;;;;;18.40;10.10;;;22.20;99.90;;;;;;5064700;28;20112;-70
2023/05/22 09:51:25;;;;;;;14.48;9.13;;;22.70;99.90;;;;;;5064351;28;20496;-71
2023/05/22 09:53:56;;;;;;;15.30;8.90;;;22.80;99.90;;;;;;5021390;28;20048;-68
2023/05/22 09:56:23;;;;;;;17.10;10.10;;;23.00;99.90;;;;;;5061901;28;20045;-69
2023/05/22 09:58:51;;;;;;;16.75;9.25;;;23.30;99.90;;;;;;5029130;28;20048;-69
2023/05/22 10:01:20;;;;;;;15.57;9.35;;;23.50;99.90;;;;;;5044637;28;20114;-69
2023/05/22 10:03:49;;;;;;;14.45;9.52;;;23.60;99.90;;;;;;5043407;28;20496;-70
2023/05/22 10:06:17;;;;;;;13.20;9.52;;;23.70;99.90;;;;;;5047468;28;20041;-71
2023/05/22 10:08:48;;;;;;;13.32;9.48;;;23.80;99.90;;;;;;5040893;28;20041;-70
2023/05/22 10:11:16;;;;;;;13.65;9.32;;;24.00;99.90;;;;;;5015596;28;20378;-70
2023/05/22 10:13:43;;;;;;;13.18;8.65;;;24.10;99.90;;;;;;5061868;28;20040;-70
2023/05/22 10:16:10;;;;;;;16.85;8.77;;;24.20;99.90;;;;;;5024538;28;20033;-71
2023/05/22 10:18:38;;;;;;;16.20;9.38;;;24.40;99.90;;;;;;5032436;28;20136;-70
2023/05/22 10:21:03;;;;;;;13.30;8.52;;;24.50;99.90;;;;;;5029688;28;20656;-70
2023/05/22 10:23:29;;;;;;;14.45;9.07;;;24.70;99.90;;;;;;5041064;28;20109;-70
2023/05/22 10:25:56;;;;;;;13.65;9.48;;;24.70;99.90;;;;;;5031983;28;20068;-70
2023/05/22 10:28:31;;;;;;;15.23;8.98;;;24.70;99.90;;;;;;5025246;28;20110;-70
2023/05/22 10:31:23;;;;;;;13.35;9.57;;;24.90;99.90;;;;;;5028825;28;20045;-70
2023/05/22 10:34:00;;;;;;;14.35;9.63;;;25.00;99.90;;;;;;5028748;28;20041;-70
2023/05/22 10:36:55;;;;;;;13.88;9.10;;;24.90;99.90;;;;;;5063808;28;20051;-70
2023/05/22 10:39:24;;;;;;;12.27;9.38;;;24.90;99.90;;;;;;5029574;28;20049;-71
2023/05/22 10:41:49;;;;;;;12.02;9.27;;;24.90;99.90;;;;;;5031000;28;20043;-71
2023/05/22 10:44:17;;;;;;;12.57;9.25;;;25.00;99.90;;;;;;5029652;28;20049;-71
2023/05/22 10:46:48;;;;;;;13.80;9.05;;;25.10;99.90;;;;;;5029861;28;20064;-71
2023/05/22 10:49:24;;;;;;;11.68;7.80;;;25.40;99.90;;;;;;5033050;28;20493;-72
2023/05/22 10:51:57;;;;;;;12.85;9.80;;;25.60;99.90;;;;;;5031906;28;20457;-72
2023/05/22 10:54:42;;;;;;;12.95;9.20;;;25.70;99.90;;;;;;5030008;28;20067;-72
2023/05/22 10:57:15;;;;;;;15.65;9.40;;;25.80;99.90;;;;;;5032821;28;20092;-72
2023/05/22 10:59:42;;;;;;;11.30;8.80;;;25.70;99.90;;;;;;5015954;28;20047;-72
2023/05/22 11:02:28;;;;;;;11.43;8.90;;;25.70;99.90;;;;;;5031043;28;20198;-72
2023/05/22 11:04:54;;;;;;;14.07;9.73;;;25.70;99.90;;;;;;5031461;28;20049;-72
2023/05/22 11:07:20;;;;;;;10.90;8.63;;;25.60;99.90;;;;;;5031127;28;20137;-72
2023/05/22 11:09:47;;;;;;;12.52;8.45;;;25.70;99.90;;;;;;5034863;28;20055;-73
2023/05/22 11:12:22;;;;;;;15.50;9.25;;;25.80;99.90;;;;;;5029049;28;20402;-72
2023/05/22 11:14:51;;;;;;;12.63;9.57;;;26.00;99.90;;;;;;5030217;28;20033;-72
2023/05/22 11:17:24;;;;;;;15.25;11.85;;;26.20;99.90;;;;;;5030121;28;20040;-72
2023/05/22 11:20:01;;;;;;;15.07;9.90;;;26.20;99.90;;;;;;5031139;28;20030;-72
2023/05/22 11:22:40;;;;;;;14.63;10.20;;;26.10;99.90;;;;;;5030983;28;20072;-72
2023/05/22 11:25:08;;;;;;;14.68;9.57;;;25.80;99.90;;;;;;5029769;28;20033;-73
2023/05/22 11:27:35;;;;;;;14.40;9.05;;;25.90;99.90;;;;;;5060721;28;20037;-73
2023/05/22 11:30:01;;;;;;;13.18;10.00;;;26.10;99.90;;;;;;5025970;28;20178;-72
2023/05/22 11:32:28;;;;;;;15.10;9.52;;;26.40;99.90;;;;;;5046421;28;20049;-72
2023/05/22 11:34:56;;;;;;;11.65;9.60;;;26.60;99.90;;;;;;5026244;28;20559;-72
2023/05/22 11:37:22;;;;;;;12.10;9.82;;;26.70;99.90;;;;;;5061543;28;20037;-72
2023/05/22 11:39:55;;;;;;;11.00;9.82;;;26.90;99.90;;;;;;5030667;28;20047;-72
2023/05/22 11:42:21;;;;;;;15.27;8.93;;;26.90;99.90;;;;;;5063917;28;20118;-72
2023/05/22 11:44:46;;;;;;;12.38;9.45;;;26.80;99.90;;;;;;5030722;28;20103;-72
2023/05/22 11:47:13;;;;;;;11.55;8.80;;;26.90;99.90;;;;;;5062775;28;20041;-73
2023/05/22 11:49:42;;;;;;;10.00;8.80;;;27.10;99.90;;;;;;5063584;28;20164;-72
2023/05/22 11:52:09;;;;;;;9.25;8.15;;;27.20;99.90;;;;;;5030930;28;20103;-72
2023/05/22 11:54:35;;;;;;;9.63;7.97;;;27.40;99.70;;;;;;5033776;28;20045;-72
2023/05/22 11:57:08;;;;;;;15.43;9.70;;;27.70;99.90;;;;;;5031239;28;20040;-72
2023/05/22 11:59:34;;;;;;;9.93;8.85;;;27.80;98.20;;;;;;5015769;28;20117;-72
2023/05/22 12:02:00;;;;;;;11.80;8.65;;;27.50;97.20;;;;;;5029988;28;20079;-72
2023/05/22 12:04:25;;;;;;;9.85;8.50;;;27.70;97.00;;;;;;5031815;28;20041;-72
2023/05/22 12:06:53;;;;;;;9.60;8.35;;;27.50;97.30;;;;;;5031146;28;20044;-72
2023/05/22 12:09:19;;;;;;;8.90;8.00;;;27.60;96.20;;;;;;5032585;28;20400;-72
2023/05/22 12:11:48;;;;;;;9.25;7.50;;;27.60;97.90;;;;;;5029891;28;20037;-72
2023/05/22 12:14:14;;;;;;;10.93;7.30;;;27.70;96.50;;;;;;5044800;28;20029;-77
2023/05/22 12:16:40;;;;;;;11.80;8.60;;;27.80;97.00;;;;;;5028585;28;20052;-74
2023/05/22 12:19:10;;;;;;;11.18;7.82;;;28.20;97.20;;;;;;5033331;28;20068;-79
2023/05/22 12:21:40;;;;;;;8.20;7.35;;;28.40;96.40;;;;;;5033246;28;20132;-78
2023/05/22 12:24:07;;;;;;;10.38;9.18;;;28.70;95.90;;;;;;5034406;28;20041;-78
2023/05/22 12:26:33;;;;;;;9.27;8.02;;;29.00;94.10;;;;;;5030822;28;20044;-79
2023/05/22 12:28:59;;;;;;;10.02;8.10;;;29.20;93.80;;;;;;5015787;28;20094;-79
2023/05/22 12:31:25;;;;;;;8.85;8.05;;;29.20;94.00;;;;;;5065937;28;20721;-78
2023/05/22 12:33:55;;;;;;;8.43;7.38;;;29.30;91.90;;;;;;5013771;28;20436;-77